sensor_id;sensor_type;location;lat;lon;timestamp;P1;P2;P0
80643;PMS5003;70010;60.224;24.712;2023-05-17T00:00:16;46;44;
80643;PMS5003;70010;60.224;24.712;2023-05-17T00:02:41;59;55;
80643;PMS5003;70010;60.224;24.712;2023-05-17T00:05:06;59;52;
80643;PMS5003;70010;60.224;24.712;2023-05-17T00:07:31;55;49;
80643;PMS5003;70010;60.224;24.712;2023-05-17T00:09:57;56;51;
80643;PMS5003;70010;60.224;24.712;2023-05-17T00:12:22;56;55;
80643;PMS5003;70010;60.224;24.712;2023-05-17T00:14:47;57;53;
80643;PMS5003;70010;60.224;24.712;2023-05-17T00:17:12;59;51;
80643;PMS5003;70010;60.224;24.712;2023-05-17T00:19:38;59;56;
80643;PMS5003;70010;60.224;24.712;2023-05-17T00:22:03;59;54;
80643;PMS5003;70010;60.224;24.712;2023-05-17T00:24:29;56;51;
80643;PMS5003;70010;60.224;24.712;2023-05-17T00:26:54;56;50;
80643;PMS5003;70010;60.224;24.712;2023-05-17T00:29:20;55;47;
80643;PMS5003;70010;60.224;24.712;2023-05-17T00:31:45;50;46;
80643;PMS5003;70010;60.224;24.712;2023-05-17T00:34:11;47;43;
80643;PMS5003;70010;60.224;24.712;2023-05-17T00:36:36;52;49;
80643;PMS5003;70010;60.224;24.712;2023-05-17T00:39:01;50;45;
80643;PMS5003;70010;60.224;24.712;2023-05-17T00:41:26;47;42;
80643;PMS5003;70010;60.224;24.712;2023-05-17T00:43:52;52;48;
80643;PMS5003;70010;60.224;24.712;2023-05-17T00:46:17;56;49;
80643;PMS5003;70010;60.224;24.712;2023-05-17T00:48:42;46;41;
80643;PMS5003;70010;60.224;24.712;2023-05-17T00:51:08;46;38;
80643;PMS5003;70010;60.224;24.712;2023-05-17T00:53:33;43;41;
80643;PMS5003;70010;60.224;24.712;2023-05-17T00:55:59;44;42;
80643;PMS5003;70010;60.224;24.712;2023-05-17T00:58:24;36;33;
80643;PMS5003;70010;60.224;24.712;2023-05-17T01:00:50;49;42;
80643;PMS5003;70010;60.224;24.712;2023-05-17T01:03:15;37;35;
80643;PMS5003;70010;60.224;24.712;2023-05-17T01:05:41;41;39;
80643;PMS5003;70010;60.224;24.712;2023-05-17T01:08:06;38;36;
80643;PMS5003;70010;60.224;24.712;2023-05-17T01:10:34;35;32;
80643;PMS5003;70010;60.224;24.712;2023-05-17T01:13:00;33;31;
80643;PMS5003;70010;60.224;24.712;2023-05-17T01:15:24;39;35;
80643;PMS5003;70010;60.224;24.712;2023-05-17T01:17:50;38;36;
80643;PMS5003;70010;60.224;24.712;2023-05-17T01:20:17;41;37;
80643;PMS5003;70010;60.224;24.712;2023-05-17T01:22:42;37;34;
80643;PMS5003;70010;60.224;24.712;2023-05-17T01:25:10;34;32;
80643;PMS5003;70010;60.224;24.712;2023-05-17T01:27:29;35;33;
80643;PMS5003;70010;60.224;24.712;2023-05-17T01:29:55;31;31;
80643;PMS5003;70010;60.224;24.712;2023-05-17T01:32:21;35;31;
80643;PMS5003;70010;60.224;24.712;2023-05-17T01:34:46;27;25;
80643;PMS5003;70010;60.224;24.712;2023-05-17T01:37:11;32;29;
80643;PMS5003;70010;60.224;24.712;2023-05-17T01:39:37;36;30;
80643;PMS5003;70010;60.224;24.712;2023-05-17T01:42:04;25;24;
80643;PMS5003;70010;60.224;24.712;2023-05-17T01:44:29;30;29;
80643;PMS5003;70010;60.224;24.712;2023-05-17T01:46:54;32;32;
80643;PMS5003;70010;60.224;24.712;2023-05-17T01:49:20;29;26;
80643;PMS5003;70010;60.224;24.712;2023-05-17T01:51:45;25;24;
80643;PMS5003;70010;60.224;24.712;2023-05-17T01:54:09;24;24;
80643;PMS5003;70010;60.224;24.712;2023-05-17T01:56:34;22;21;
80643;PMS5003;70010;60.224;24.712;2023-05-17T01:59:01;31;28;
80643;PMS5003;70010;60.224;24.712;2023-05-17T02:01:25;26;24;
80643;PMS5003;70010;60.224;24.712;2023-05-17T02:03:50;22;22;
80643;PMS5003;70010;60.224;24.712;2023-05-17T02:06:16;25;23;
80643;PMS5003;70010;60.224;24.712;2023-05-17T02:08:41;18;17;
80643;PMS5003;70010;60.224;24.712;2023-05-17T02:11:07;20;20;
80643;PMS5003;70010;60.224;24.712;2023-05-17T02:13:32;18;15;
80643;PMS5003;70010;60.224;24.712;2023-05-17T02:15:58;21;20;
80643;PMS5003;70010;60.224;24.712;2023-05-17T02:18:22;20;18;
80643;PMS5003;70010;60.224;24.712;2023-05-17T02:20:48;16;16;
80643;PMS5003;70010;60.224;24.712;2023-05-17T02:23:13;22;20;
80643;PMS5003;70010;60.224;24.712;2023-05-17T02:25:39;19;18;
80643;PMS5003;70010;60.224;24.712;2023-05-17T02:28:04;14;14;
80643;PMS5003;70010;60.224;24.712;2023-05-17T02:30:29;13;13;
80643;PMS5003;70010;60.224;24.712;2023-05-17T02:32:54;8;8;
80643;PMS5003;70010;60.224;24.712;2023-05-17T02:35:19;14;11;
80643;PMS5003;70010;60.224;24.712;2023-05-17T02:37:45;10;10;
80643;PMS5003;70010;60.224;24.712;2023-05-17T02:40:11;16;14;
80643;PMS5003;70010;60.224;24.712;2023-05-17T02:42:36;13;12;
80643;PMS5003;70010;60.224;24.712;2023-05-17T02:45:01;14;12;
80643;PMS5003;70010;60.224;24.712;2023-05-17T02:47:27;9;8;
80643;PMS5003;70010;60.224;24.712;2023-05-17T02:49:52;12;12;
80643;PMS5003;70010;60.224;24.712;2023-05-17T02:52:17;13;12;
80643;PMS5003;70010;60.224;24.712;2023-05-17T02:54:43;19;18;
80643;PMS5003;70010;60.224;24.712;2023-05-17T02:57:08;16;14;
80643;PMS5003;70010;60.224;24.712;2023-05-17T02:59:33;14;11;
80643;PMS5003;70010;60.224;24.712;2023-05-17T03:01:59;13;12;
80643;PMS5003;70010;60.224;24.712;2023-05-17T03:04:25;11;11;
80643;PMS5003;70010;60.224;24.712;2023-05-17T03:06:50;11;11;
80643;PMS5003;70010;60.224;24.712;2023-05-17T03:09:15;14;12;
80643;PMS5003;70010;60.224;24.712;2023-05-17T03:11:41;22;18;
80643;PMS5003;70010;60.224;24.712;2023-05-17T03:14:07;15;13;
80643;PMS5003;70010;60.224;24.712;2023-05-17T03:16:33;15;15;
80643;PMS5003;70010;60.224;24.712;2023-05-17T03:18:58;16;15;
80643;PMS5003;70010;60.224;24.712;2023-05-17T03:21:23;21;21;
80643;PMS5003;70010;60.224;24.712;2023-05-17T03:23:49;13;13;
80643;PMS5003;70010;60.224;24.712;2023-05-17T03:26:15;18;15;
80643;PMS5003;70010;60.224;24.712;2023-05-17T03:28:40;17;16;
80643;PMS5003;70010;60.224;24.712;2023-05-17T03:31:06;20;19;
80643;PMS5003;70010;60.224;24.712;2023-05-17T03:33:31;21;18;
80643;PMS5003;70010;60.224;24.712;2023-05-17T03:35:56;18;16;
80643;PMS5003;70010;60.224;24.712;2023-05-17T03:38:22;21;19;
80643;PMS5003;70010;60.224;24.712;2023-05-17T03:40:48;25;22;
80643;PMS5003;70010;60.224;24.712;2023-05-17T03:43:13;27;23;
80643;PMS5003;70010;60.224;24.712;2023-05-17T03:45:39;19;17;
80643;PMS5003;70010;60.224;24.712;2023-05-17T03:48:04;25;22;
80643;PMS5003;70010;60.224;24.712;2023-05-17T03:50:29;19;18;
80643;PMS5003;70010;60.224;24.712;2023-05-17T03:52:54;20;19;
80643;PMS5003;70010;60.224;24.712;2023-05-17T03:55:20;23;20;
80643;PMS5003;70010;60.224;24.712;2023-05-17T03:57:45;28;22;
80643;PMS5003;70010;60.224;24.712;2023-05-17T04:00:11;25;23;
80643;PMS5003;70010;60.224;24.712;2023-05-17T04:02:36;22;21;
80643;PMS5003;70010;60.224;24.712;2023-05-17T04:05:02;23;19;
80643;PMS5003;70010;60.224;24.712;2023-05-17T04:07:28;22;20;
80643;PMS5003;70010;60.224;24.712;2023-05-17T04:09:54;24;21;
80643;PMS5003;70010;60.224;24.712;2023-05-17T04:12:20;18;15;
80643;PMS5003;70010;60.224;24.712;2023-05-17T04:14:45;32;26;
80643;PMS5003;70010;60.224;24.712;2023-05-17T04:17:10;23;21;
80643;PMS5003;70010;60.224;24.712;2023-05-17T04:19:36;28;26;
80643;PMS5003;70010;60.224;24.712;2023-05-17T04:22:01;20;19;
80643;PMS5003;70010;60.224;24.712;2023-05-17T04:24:27;19;18;
80643;PMS5003;70010;60.224;24.712;2023-05-17T04:26:53;21;18;
80643;PMS5003;70010;60.224;24.712;2023-05-17T04:29:18;25;22;
80643;PMS5003;70010;60.224;24.712;2023-05-17T04:31:44;23;23;
80643;PMS5003;70010;60.224;24.712;2023-05-17T04:34:09;26;23;
80643;PMS5003;70010;60.224;24.712;2023-05-17T04:36:34;26;22;
80643;PMS5003;70010;60.224;24.712;2023-05-17T04:39:00;17;17;
80643;PMS5003;70010;60.224;24.712;2023-05-17T04:41:25;27;27;
80643;PMS5003;70010;60.224;24.712;2023-05-17T04:43:51;26;22;
80643;PMS5003;70010;60.224;24.712;2023-05-17T04:46:17;27;24;
80643;PMS5003;70010;60.224;24.712;2023-05-17T04:48:42;19;19;
80643;PMS5003;70010;60.224;24.712;2023-05-17T04:51:08;26;20;
80643;PMS5003;70010;60.224;24.712;2023-05-17T04:53:34;31;27;
80643;PMS5003;70010;60.224;24.712;2023-05-17T04:56:00;27;27;
80643;PMS5003;70010;60.224;24.712;2023-05-17T04:58:25;23;23;
80643;PMS5003;70010;60.224;24.712;2023-05-17T05:00:50;27;27;
80643;PMS5003;70010;60.224;24.712;2023-05-17T05:03:15;23;22;
80643;PMS5003;70010;60.224;24.712;2023-05-17T05:05:41;22;21;
80643;PMS5003;70010;60.224;24.712;2023-05-17T05:08:07;22;22;
80643;PMS5003;70010;60.224;24.712;2023-05-17T05:10:32;31;30;
80643;PMS5003;70010;60.224;24.712;2023-05-17T05:12:58;28;26;
80643;PMS5003;70010;60.224;24.712;2023-05-17T05:15:23;24;22;
80643;PMS5003;70010;60.224;24.712;2023-05-17T05:17:49;32;28;
80643;PMS5003;70010;60.224;24.712;2023-05-17T05:20:14;29;28;
80643;PMS5003;70010;60.224;24.712;2023-05-17T05:22:40;27;27;
80643;PMS5003;70010;60.224;24.712;2023-05-17T05:25:06;29;26;
80643;PMS5003;70010;60.224;24.712;2023-05-17T05:27:31;24;24;
80643;PMS5003;70010;60.224;24.712;2023-05-17T05:29:56;20;17;
80643;PMS5003;70010;60.224;24.712;2023-05-17T05:32:22;33;28;
80643;PMS5003;70010;60.224;24.712;2023-05-17T05:34:47;29;28;
80643;PMS5003;70010;60.224;24.712;2023-05-17T05:37:13;26;23;
80643;PMS5003;70010;60.224;24.712;2023-05-17T05:39:39;30;28;
80643;PMS5003;70010;60.224;24.712;2023-05-17T05:42:04;28;25;
80643;PMS5003;70010;60.224;24.712;2023-05-17T05:44:29;36;31;
80643;PMS5003;70010;60.224;24.712;2023-05-17T05:46:54;26;24;
80643;PMS5003;70010;60.224;24.712;2023-05-17T05:49:20;30;29;
80643;PMS5003;70010;60.224;24.712;2023-05-17T05:51:46;30;25;
80643;PMS5003;70010;60.224;24.712;2023-05-17T05:54:11;29;29;
80643;PMS5003;70010;60.224;24.712;2023-05-17T05:56:36;30;24;
80643;PMS5003;70010;60.224;24.712;2023-05-17T05:59:02;30;29;
80643;PMS5003;70010;60.224;24.712;2023-05-17T06:01:27;38;31;
80643;PMS5003;70010;60.224;24.712;2023-05-17T06:03:53;26;25;
80643;PMS5003;70010;60.224;24.712;2023-05-17T06:06:19;28;25;
80643;PMS5003;70010;60.224;24.712;2023-05-17T06:08:44;33;31;
80643;PMS5003;70010;60.224;24.712;2023-05-17T06:11:09;28;27;
80643;PMS5003;70010;60.224;24.712;2023-05-17T06:13:35;35;33;
80643;PMS5003;70010;60.224;24.712;2023-05-17T06:16:00;32;29;
80643;PMS5003;70010;60.224;24.712;2023-05-17T06:18:26;27;27;
80643;PMS5003;70010;60.224;24.712;2023-05-17T06:20:51;34;30;
80643;PMS5003;70010;60.224;24.712;2023-05-17T06:23:17;29;26;
80643;PMS5003;70010;60.224;24.712;2023-05-17T06:25:42;35;30;
80643;PMS5003;70010;60.224;24.712;2023-05-17T06:28:07;41;36;
80643;PMS5003;70010;60.224;24.712;2023-05-17T06:30:32;33;32;
80643;PMS5003;70010;60.224;24.712;2023-05-17T06:32:58;32;32;
80643;PMS5003;70010;60.224;24.712;2023-05-17T06:35:24;31;31;
80643;PMS5003;70010;60.224;24.712;2023-05-17T06:37:49;33;33;
80643;PMS5003;70010;60.224;24.712;2023-05-17T06:40:14;30;27;
80643;PMS5003;70010;60.224;24.712;2023-05-17T06:42:40;35;33;
80643;PMS5003;70010;60.224;24.712;2023-05-17T06:45:06;34;32;
80643;PMS5003;70010;60.224;24.712;2023-05-17T06:47:31;34;33;
80643;PMS5003;70010;60.224;24.712;2023-05-17T06:49:56;41;39;
80643;PMS5003;70010;60.224;24.712;2023-05-17T06:52:22;38;33;
80643;PMS5003;70010;60.224;24.712;2023-05-17T06:54:47;38;36;
80643;PMS5003;70010;60.224;24.712;2023-05-17T06:57:13;33;30;
80643;PMS5003;70010;60.224;24.712;2023-05-17T06:59:38;28;27;
80643;PMS5003;70010;60.224;24.712;2023-05-17T07:02:03;39;35;
80643;PMS5003;70010;60.224;24.712;2023-05-17T07:04:28;35;33;
80643;PMS5003;70010;60.224;24.712;2023-05-17T07:06:54;36;31;
80643;PMS5003;70010;60.224;24.712;2023-05-17T07:09:20;35;29;
80643;PMS5003;70010;60.224;24.712;2023-05-17T07:11:45;36;34;
80643;PMS5003;70010;60.224;24.712;2023-05-17T07:14:10;35;28;
80643;PMS5003;70010;60.224;24.712;2023-05-17T07:16:35;34;29;
80643;PMS5003;70010;60.224;24.712;2023-05-17T07:19:00;29;28;
80643;PMS5003;70010;60.224;24.712;2023-05-17T07:21:26;32;29;
80643;PMS5003;70010;60.224;24.712;2023-05-17T07:23:51;41;38;
80643;PMS5003;70010;60.224;24.712;2023-05-17T07:26:17;35;35;
80643;PMS5003;70010;60.224;24.712;2023-05-17T07:28:42;28;26;
80643;PMS5003;70010;60.224;24.712;2023-05-17T07:31:08;33;33;
80643;PMS5003;70010;60.224;24.712;2023-05-17T07:33:33;26;26;
80643;PMS5003;70010;60.224;24.712;2023-05-17T07:35:59;33;30;
80643;PMS5003;70010;60.224;24.712;2023-05-17T07:38:24;36;30;
80643;PMS5003;70010;60.224;24.712;2023-05-17T07:40:50;36;32;
80643;PMS5003;70010;60.224;24.712;2023-05-17T07:43:15;30;24;
80643;PMS5003;70010;60.224;24.712;2023-05-17T07:45:41;25;24;
80643;PMS5003;70010;60.224;24.712;2023-05-17T07:48:06;28;26;
80643;PMS5003;70010;60.224;24.712;2023-05-17T07:50:31;41;28;
80643;PMS5003;70010;60.224;24.712;2023-05-17T07:52:57;29;26;
80643;PMS5003;70010;60.224;24.712;2023-05-17T07:55:22;24;23;
80643;PMS5003;70010;60.224;24.712;2023-05-17T07:57:48;27;24;
80643;PMS5003;70010;60.224;24.712;2023-05-17T08:00:14;32;29;
80643;PMS5003;70010;60.224;24.712;2023-05-17T08:02:38;26;25;
80643;PMS5003;70010;60.224;24.712;2023-05-17T08:05:04;26;25;
80643;PMS5003;70010;60.224;24.712;2023-05-17T08:07:29;31;30;
80643;PMS5003;70010;60.224;24.712;2023-05-17T08:09:55;23;20;
80643;PMS5003;70010;60.224;24.712;2023-05-17T08:12:20;31;24;
80643;PMS5003;70010;60.224;24.712;2023-05-17T08:14:45;19;14;
80643;PMS5003;70010;60.224;24.712;2023-05-17T08:17:11;25;21;
80643;PMS5003;70010;60.224;24.712;2023-05-17T08:19:36;20;20;
80643;PMS5003;70010;60.224;24.712;2023-05-17T08:22:02;19;19;
80643;PMS5003;70010;60.224;24.712;2023-05-17T08:24:27;22;20;
80643;PMS5003;70010;60.224;24.712;2023-05-17T08:26:52;17;15;
80643;PMS5003;70010;60.224;24.712;2023-05-17T08:29:18;21;19;
80643;PMS5003;70010;60.224;24.712;2023-05-17T08:31:44;16;16;
80643;PMS5003;70010;60.224;24.712;2023-05-17T08:34:10;20;18;
80643;PMS5003;70010;60.224;24.712;2023-05-17T08:36:36;17;13;
80643;PMS5003;70010;60.224;24.712;2023-05-17T08:39:02;15;14;
80643;PMS5003;70010;60.224;24.712;2023-05-17T08:41:27;14;12;
80643;PMS5003;70010;60.224;24.712;2023-05-17T08:43:53;18;15;
80643;PMS5003;70010;60.224;24.712;2023-05-17T08:46:18;15;11;
80643;PMS5003;70010;60.224;24.712;2023-05-17T08:48:44;9;9;
80643;PMS5003;70010;60.224;24.712;2023-05-17T08:51:10;11;11;
80643;PMS5003;70010;60.224;24.712;2023-05-17T08:53:34;16;14;
80643;PMS5003;70010;60.224;24.712;2023-05-17T08:56:00;6;6;
80643;PMS5003;70010;60.224;24.712;2023-05-17T08:58:26;13;7;
80643;PMS5003;70010;60.224;24.712;2023-05-17T09:00:50;6;6;
80643;PMS5003;70010;60.224;24.712;2023-05-17T09:03:15;11;7;
80643;PMS5003;70010;60.224;24.712;2023-05-17T09:05:40;11;8;
80643;PMS5003;70010;60.224;24.712;2023-05-17T09:08:06;7;7;
80643;PMS5003;70010;60.224;24.712;2023-05-17T09:10:31;7;6;
80643;PMS5003;70010;60.224;24.712;2023-05-17T09:12:56;6;4;
80643;PMS5003;70010;60.224;24.712;2023-05-17T09:15:22;5;5;
80643;PMS5003;70010;60.224;24.712;2023-05-17T09:17:49;7;7;
80643;PMS5003;70010;60.224;24.712;2023-05-17T09:20:12;9;6;
80643;PMS5003;70010;60.224;24.712;2023-05-17T09:22:37;7;5;
80643;PMS5003;70010;60.224;24.712;2023-05-17T09:25:03;8;5;
80643;PMS5003;70010;60.224;24.712;2023-05-17T09:27:29;8;5;
80643;PMS5003;70010;60.224;24.712;2023-05-17T09:29:53;4;3;
80643;PMS5003;70010;60.224;24.712;2023-05-17T09:32:19;7;5;
80643;PMS5003;70010;60.224;24.712;2023-05-17T09:34:44;4;4;
80643;PMS5003;70010;60.224;24.712;2023-05-17T09:37:11;4;3;
80643;PMS5003;70010;60.224;24.712;2023-05-17T09:39:35;13;11;
80643;PMS5003;70010;60.224;24.712;2023-05-17T09:42:00;5;4;
80643;PMS5003;70010;60.224;24.712;2023-05-17T09:44:26;4;2;
80643;PMS5003;70010;60.224;24.712;2023-05-17T09:46:51;3;3;
80643;PMS5003;70010;60.224;24.712;2023-05-17T09:49:16;4;4;
80643;PMS5003;70010;60.224;24.712;2023-05-17T09:51:42;3;3;
80643;PMS5003;70010;60.224;24.712;2023-05-17T09:54:08;4;3;
80643;PMS5003;70010;60.224;24.712;2023-05-17T09:56:34;5;5;
80643;PMS5003;70010;60.224;24.712;2023-05-17T09:58:59;4;4;
80643;PMS5003;70010;60.224;24.712;2023-05-17T10:01:24;5;5;
80643;PMS5003;70010;60.224;24.712;2023-05-17T10:03:48;3;3;
80643;PMS5003;70010;60.224;24.712;2023-05-17T10:06:14;7;3;
80643;PMS5003;70010;60.224;24.712;2023-05-17T10:08:40;4;4;
80643;PMS5003;70010;60.224;24.712;2023-05-17T10:11:05;5;4;
80643;PMS5003;70010;60.224;24.712;2023-05-17T10:13:33;5;5;
80643;PMS5003;70010;60.224;24.712;2023-05-17T10:15:55;4;3;
80643;PMS5003;70010;60.224;24.712;2023-05-17T10:18:20;4;3;
80643;PMS5003;70010;60.224;24.712;2023-05-17T10:20:45;3;2;
80643;PMS5003;70010;60.224;24.712;2023-05-17T10:23:11;8;5;
80643;PMS5003;70010;60.224;24.712;2023-05-17T10:25:36;8;4;
80643;PMS5003;70010;60.224;24.712;2023-05-17T10:28:01;4;3;
80643;PMS5003;70010;60.224;24.712;2023-05-17T10:30:27;5;5;
80643;PMS5003;70010;60.224;24.712;2023-05-17T10:32:52;12;6;
80643;PMS5003;70010;60.224;24.712;2023-05-17T10:35:17;3;3;
80643;PMS5003;70010;60.224;24.712;2023-05-17T10:37:42;2;2;
80643;PMS5003;70010;60.224;24.712;2023-05-17T10:40:08;4;4;
80643;PMS5003;70010;60.224;24.712;2023-05-17T10:42:33;5;4;
80643;PMS5003;70010;60.224;24.712;2023-05-17T10:44:59;4;4;
80643;PMS5003;70010;60.224;24.712;2023-05-17T10:49:49;4;4;
80643;PMS5003;70010;60.224;24.712;2023-05-17T10:52:15;4;4;
80643;PMS5003;70010;60.224;24.712;2023-05-17T10:54:40;4;3;
80643;PMS5003;70010;60.224;24.712;2023-05-17T10:57:05;4;2;
80643;PMS5003;70010;60.224;24.712;2023-05-17T10:59:30;3;3;
80643;PMS5003;70010;60.224;24.712;2023-05-17T11:01:57;4;4;
80643;PMS5003;70010;60.224;24.712;2023-05-17T11:04:21;2;2;
80643;PMS5003;70010;60.224;24.712;2023-05-17T11:06:46;3;3;
80643;PMS5003;70010;60.224;24.712;2023-05-17T11:09:13;7;4;
80643;PMS5003;70010;60.224;24.712;2023-05-17T11:11:37;5;5;
80643;PMS5003;70010;60.224;24.712;2023-05-17T11:14:03;6;4;
80643;PMS5003;70010;60.224;24.712;2023-05-17T11:16:34;4;3;
80643;PMS5003;70010;60.224;24.712;2023-05-17T11:18:54;7;5;
80643;PMS5003;70010;60.224;24.712;2023-05-17T11:21:19;4;4;
80643;PMS5003;70010;60.224;24.712;2023-05-17T11:23:44;9;9;
80643;PMS5003;70010;60.224;24.712;2023-05-17T11:28:34;5;5;
80643;PMS5003;70010;60.224;24.712;2023-05-17T11:31:00;6;6;
80643;PMS5003;70010;60.224;24.712;2023-05-17T11:35:51;6;4;
80643;PMS5003;70010;60.224;24.712;2023-05-17T11:38:17;4;4;
80643;PMS5003;70010;60.224;24.712;2023-05-17T11:40:41;8;4;
80643;PMS5003;70010;60.224;24.712;2023-05-17T11:47:58;3;3;
80643;PMS5003;70010;60.224;24.712;2023-05-17T11:50:23;1;1;
80643;PMS5003;70010;60.224;24.712;2023-05-17T11:52:48;5;5;
80643;PMS5003;70010;60.224;24.712;2023-05-17T11:55:14;6;4;
80643;PMS5003;70010;60.224;24.712;2023-05-17T11:57:39;6;4;
80643;PMS5003;70010;60.224;24.712;2023-05-17T12:00:05;5;5;
80643;PMS5003;70010;60.224;24.712;2023-05-17T12:02:30;6;5;
80643;PMS5003;70010;60.224;24.712;2023-05-17T12:04:55;5;5;
80643;PMS5003;70010;60.224;24.712;2023-05-17T12:07:20;4;2;
80643;PMS5003;70010;60.224;24.712;2023-05-17T12:09:46;5;5;
80643;PMS5003;70010;60.224;24.712;2023-05-17T12:12:11;3;3;
80643;PMS5003;70010;60.224;24.712;2023-05-17T12:14:36;9;7;
80643;PMS5003;70010;60.224;24.712;2023-05-17T12:17:02;10;7;
80643;PMS5003;70010;60.224;24.712;2023-05-17T12:19:27;3;3;
80643;PMS5003;70010;60.224;24.712;2023-05-17T12:21:53;7;6;
80643;PMS5003;70010;60.224;24.712;2023-05-17T12:24:18;5;5;
80643;PMS5003;70010;60.224;24.712;2023-05-17T12:26:44;9;6;
80643;PMS5003;70010;60.224;24.712;2023-05-17T12:29:09;5;4;
80643;PMS5003;70010;60.224;24.712;2023-05-17T12:31:35;4;4;
80643;PMS5003;70010;60.224;24.712;2023-05-17T12:33:59;7;7;
80643;PMS5003;70010;60.224;24.712;2023-05-17T12:36:25;5;5;
80643;PMS5003;70010;60.224;24.712;2023-05-17T12:38:50;6;6;
80643;PMS5003;70010;60.224;24.712;2023-05-17T12:41:15;4;4;
80643;PMS5003;70010;60.224;24.712;2023-05-17T12:43:42;6;6;
80643;PMS5003;70010;60.224;24.712;2023-05-17T12:46:06;5;5;
80643;PMS5003;70010;60.224;24.712;2023-05-17T12:48:32;10;8;
80643;PMS5003;70010;60.224;24.712;2023-05-17T12:50:56;8;8;
80643;PMS5003;70010;60.224;24.712;2023-05-17T12:53:21;7;6;
80643;PMS5003;70010;60.224;24.712;2023-05-17T12:55:47;8;6;
80643;PMS5003;70010;60.224;24.712;2023-05-17T12:58:12;5;5;
80643;PMS5003;70010;60.224;24.712;2023-05-17T13:00:37;5;5;
80643;PMS5003;70010;60.224;24.712;2023-05-17T13:03:07;10;6;
80643;PMS5003;70010;60.224;24.712;2023-05-17T13:05:28;7;7;
80643;PMS5003;70010;60.224;24.712;2023-05-17T13:07:53;7;5;
80643;PMS5003;70010;60.224;24.712;2023-05-17T13:10:20;7;7;
80643;PMS5003;70010;60.224;24.712;2023-05-17T13:12:52;6;6;
80643;PMS5003;70010;60.224;24.712;2023-05-17T13:15:09;6;6;
80643;PMS5003;70010;60.224;24.712;2023-05-17T13:17:35;10;6;
80643;PMS5003;70010;60.224;24.712;2023-05-17T13:20:00;5;5;
80643;PMS5003;70010;60.224;24.712;2023-05-17T13:22:25;8;7;
80643;PMS5003;70010;60.224;24.712;2023-05-17T13:24:50;11;11;
80643;PMS5003;70010;60.224;24.712;2023-05-17T13:27:16;7;5;
80643;PMS5003;70010;60.224;24.712;2023-05-17T13:29:42;13;12;
80643;PMS5003;70010;60.224;24.712;2023-05-17T13:32:08;8;6;
80643;PMS5003;70010;60.224;24.712;2023-05-17T13:34:33;6;5;
80643;PMS5003;70010;60.224;24.712;2023-05-17T13:36:58;8;6;
80643;PMS5003;70010;60.224;24.712;2023-05-17T13:39:24;7;7;
80643;PMS5003;70010;60.224;24.712;2023-05-17T13:41:50;8;8;
80643;PMS5003;70010;60.224;24.712;2023-05-17T13:44:15;4;4;
80643;PMS5003;70010;60.224;24.712;2023-05-17T13:46:40;14;12;
80643;PMS5003;70010;60.224;24.712;2023-05-17T13:49:06;7;6;
80643;PMS5003;70010;60.224;24.712;2023-05-17T13:51:32;10;7;
80643;PMS5003;70010;60.224;24.712;2023-05-17T13:53:57;6;6;
80643;PMS5003;70010;60.224;24.712;2023-05-17T13:56:22;6;6;
80643;PMS5003;70010;60.224;24.712;2023-05-17T13:58:47;10;8;
80643;PMS5003;70010;60.224;24.712;2023-05-17T14:01:13;8;7;
80643;PMS5003;70010;60.224;24.712;2023-05-17T14:03:38;5;5;
80643;PMS5003;70010;60.224;24.712;2023-05-17T14:06:04;10;7;
80643;PMS5003;70010;60.224;24.712;2023-05-17T14:08:29;8;8;
80643;PMS5003;70010;60.224;24.712;2023-05-17T14:10:54;8;8;
80643;PMS5003;70010;60.224;24.712;2023-05-17T14:13:19;9;8;
80643;PMS5003;70010;60.224;24.712;2023-05-17T14:15:45;9;7;
80643;PMS5003;70010;60.224;24.712;2023-05-17T14:18:10;9;7;
80643;PMS5003;70010;60.224;24.712;2023-05-17T14:20:35;8;8;
80643;PMS5003;70010;60.224;24.712;2023-05-17T14:23:01;8;6;
80643;PMS5003;70010;60.224;24.712;2023-05-17T14:25:26;8;7;
80643;PMS5003;70010;60.224;24.712;2023-05-17T14:27:52;6;6;
80643;PMS5003;70010;60.224;24.712;2023-05-17T14:30:18;8;8;
80643;PMS5003;70010;60.224;24.712;2023-05-17T14:32:43;11;7;
80643;PMS5003;70010;60.224;24.712;2023-05-17T14:35:08;9;7;
80643;PMS5003;70010;60.224;24.712;2023-05-17T14:37:34;12;12;
80643;PMS5003;70010;60.224;24.712;2023-05-17T14:39:59;9;6;
80643;PMS5003;70010;60.224;24.712;2023-05-17T14:42:25;15;13;
80643;PMS5003;70010;60.224;24.712;2023-05-17T14:44:51;7;7;
80643;PMS5003;70010;60.224;24.712;2023-05-17T14:47:16;11;7;
80643;PMS5003;70010;60.224;24.712;2023-05-17T14:49:41;7;7;
80643;PMS5003;70010;60.224;24.712;2023-05-17T14:52:07;7;6;
80643;PMS5003;70010;60.224;24.712;2023-05-17T14:54:32;9;9;
80643;PMS5003;70010;60.224;24.712;2023-05-17T14:56:57;9;8;
80643;PMS5003;70010;60.224;24.712;2023-05-17T14:59:23;8;8;
80643;PMS5003;70010;60.224;24.712;2023-05-17T15:01:48;8;8;
80643;PMS5003;70010;60.224;24.712;2023-05-17T15:04:13;11;9;
80643;PMS5003;70010;60.224;24.712;2023-05-17T15:06:39;11;8;
80643;PMS5003;70010;60.224;24.712;2023-05-17T15:09:04;9;8;
80643;PMS5003;70010;60.224;24.712;2023-05-17T15:11:30;10;8;
80643;PMS5003;70010;60.224;24.712;2023-05-17T15:13:55;8;8;
80643;PMS5003;70010;60.224;24.712;2023-05-17T15:16:20;7;7;
80643;PMS5003;70010;60.224;24.712;2023-05-17T15:18:46;8;7;
80643;PMS5003;70010;60.224;24.712;2023-05-17T15:21:11;7;7;
80643;PMS5003;70010;60.224;24.712;2023-05-17T15:23:36;10;8;
80643;PMS5003;70010;60.224;24.712;2023-05-17T15:26:02;14;9;
80643;PMS5003;70010;60.224;24.712;2023-05-17T15:28:27;11;11;
80643;PMS5003;70010;60.224;24.712;2023-05-17T15:33:18;11;9;
80643;PMS5003;70010;60.224;24.712;2023-05-17T15:35:43;13;8;
80643;PMS5003;70010;60.224;24.712;2023-05-17T15:38:08;8;6;
80643;PMS5003;70010;60.224;24.712;2023-05-17T15:40:34;11;9;
80643;PMS5003;70010;60.224;24.712;2023-05-17T15:42:59;10;8;
80643;PMS5003;70010;60.224;24.712;2023-05-17T15:45:24;6;6;
80643;PMS5003;70010;60.224;24.712;2023-05-17T15:47:49;11;10;
80643;PMS5003;70010;60.224;24.712;2023-05-17T15:50:15;9;9;
80643;PMS5003;70010;60.224;24.712;2023-05-17T15:52:40;8;7;
80643;PMS5003;70010;60.224;24.712;2023-05-17T15:55:05;8;8;
80643;PMS5003;70010;60.224;24.712;2023-05-17T15:57:31;10;7;
80643;PMS5003;70010;60.224;24.712;2023-05-17T15:59:56;13;9;
80643;PMS5003;70010;60.224;24.712;2023-05-17T16:02:22;7;7;
80643;PMS5003;70010;60.224;24.712;2023-05-17T16:04:47;7;7;
80643;PMS5003;70010;60.224;24.712;2023-05-17T16:07:13;9;7;
80643;PMS5003;70010;60.224;24.712;2023-05-17T16:09:38;9;9;
80643;PMS5003;70010;60.224;24.712;2023-05-17T16:12:04;14;13;
80643;PMS5003;70010;60.224;24.712;2023-05-17T16:14:29;10;8;